Time;durP1;ratioP1;P1;durP2;ratioP2;P2;SDS_P1;SDS_P2;PMS_P1;PMS_P2;Temp;Humidity;BMP_temperature;BMP_pressure;BME280_temperature;BME280_humidity;BME280_pressure;Samples;Min_cycle;Max_cycle;Signal;HPM_P1;HPM_P2
2023/06/04 00:01:48;;;;;;;11.00;3.10;;;;;;;11.28;55.26;101802.35;107401;1254;97720;-60
2023/06/04 00:04:16;;;;;;;11.30;4.20;;;;;;;11.24;55.99;101805.37;107410;1257;111211;-60
2023/06/04 00:06:45;;;;;;;4.80;2.40;;;;;;;11.21;55.88;101806.86;107437;1254;108966;-60
2023/06/04 00:09:13;;;;;;;11.70;3.70;;;;;;;11.17;55.94;101805.91;107463;1254;106840;-62
2023/06/04 00:11:41;;;;;;;8.90;4.50;;;;;;;11.12;56.01;101806.61;107446;1257;97922;-61
2023/06/04 00:14:11;;;;;;;17.80;4.80;;;;;;;11.09;56.07;101811.86;107431;1254;97726;-59
2023/06/04 00:16:40;;;;;;;10.00;3.40;;;;;;;11.04;56.47;101816.20;107486;1254;112022;-60
2023/06/04 00:19:09;;;;;;;13.00;3.20;;;;;;;10.97;56.50;101820.47;107469;1254;109780;-60
2023/06/04 00:21:37;;;;;;;11.40;3.80;;;;;;;10.92;56.58;101819.02;107455;1257;106516;-59
2023/06/04 00:24:06;;;;;;;11.30;3.20;;;;;;;10.89;56.74;101818.88;107382;1254;97912;-60
2023/06/04 00:26:34;;;;;;;16.30;4.10;;;;;;;10.88;56.98;101817.36;107459;1257;98481;-60
2023/06/04 00:29:03;;;;;;;8.30;3.50;;;;;;;10.86;57.22;101820.19;107279;1254;110823;-60
2023/06/04 00:31:32;;;;;;;8.40;3.90;;;;;;;10.84;57.57;101825.21;107395;1254;108229;-60
2023/06/04 00:34:00;;;;;;;12.30;3.90;;;;;;;10.82;58.02;101826.59;107398;1254;107624;-59
2023/06/04 00:36:28;;;;;;;14.90;3.50;;;;;;;10.79;57.99;101828.92;107415;1254;97735;-59
2023/06/04 00:38:56;;;;;;;13.50;3.80;;;;;;;10.77;58.28;101830.16;107393;1257;97940;-61
2023/06/04 00:41:25;;;;;;;9.50;3.10;;;;;;;10.75;58.52;101826.20;107371;1254;111816;-61
2023/06/04 00:43:57;;;;;;;11.20;3.20;;;;;;;10.75;58.70;101825.13;107384;1254;110954;-59
2023/06/04 00:46:26;;;;;;;6.70;2.70;;;;;;;10.74;59.10;101825.93;107379;1254;108297;-60
2023/06/04 00:48:55;;;;;;;13.60;2.90;;;;;;;10.74;59.12;101827.52;107383;1254;97813;-61
2023/06/04 00:51:25;;;;;;;16.60;4.50;;;;;;;10.74;59.25;101828.77;107417;1254;97911;-60
2023/06/04 00:53:54;;;;;;;6.80;3.10;;;;;;;10.77;59.42;101828.73;107391;1254;110226;-59
2023/06/04 00:56:23;;;;;;;10.80;3.20;;;;;;;10.81;59.36;101831.16;107401;1253;109402;-59
2023/06/04 00:58:53;;;;;;;8.50;3.40;;;;;;;10.83;59.51;101831.72;107352;1254;108213;-60
2023/06/04 01:01:36;;;;;;;7.60;4.00;;;;;;;10.86;59.33;101831.15;107405;1254;98533;-60
2023/06/04 01:04:12;;;;;;;10.80;3.60;;;;;;;10.86;59.31;101829.54;107397;1254;98386;-60
2023/06/04 01:06:47;;;;;;;10.50;4.20;;;;;;;10.83;59.57;101824.93;107410;1254;112049;-61
2023/06/04 01:09:16;;;;;;;9.70;3.00;;;;;;;10.80;59.50;101824.38;107508;1253;109304;-61
2023/06/04 01:11:44;;;;;;;15.50;4.30;;;;;;;10.79;59.67;101822.34;107409;1254;106499;-60
2023/06/04 01:14:13;;;;;;;11.10;3.90;;;;;;;10.74;59.86;101825.39;107396;1254;97890;-59
2023/06/04 01:17:08;;;;;;;10.90;3.80;;;;;;;10.70;60.21;101820.86;107393;1254;98463;-60
2023/06/04 01:20:04;;;;;;;9.80;3.40;;;;;;;10.66;60.14;101823.27;107428;1254;111300;-61
2023/06/04 01:22:42;;;;;;;15.30;4.10;;;;;;;10.64;60.10;101821.20;107371;1254;108935;-59
2023/06/04 01:25:20;;;;;;;17.20;3.20;;;;;;;10.65;60.48;101823.17;107413;1254;108745;-59
2023/06/04 01:27:52;;;;;;;8.90;3.90;;;;;;;10.62;60.49;101822.83;107347;1254;97887;-60
2023/06/04 01:30:23;;;;;;;10.60;3.30;;;;;;;10.58;60.31;101826.84;107441;1254;97825;-58
2023/06/04 01:32:55;;;;;;;11.70;3.80;;;;;;;10.55;60.24;101822.78;107428;1254;110865;-59
2023/06/04 01:35:24;;;;;;;4.40;2.50;;;;;;;10.46;60.50;101824.83;107333;1254;109119;-59
2023/06/04 01:37:56;;;;;;;11.00;3.50;;;;;;;10.38;60.77;101816.98;107260;1254;108284;-60
2023/06/04 01:40:25;;;;;;;14.90;2.90;;;;;;;10.31;60.63;101818.34;107370;1254;97913;-61
2023/06/04 01:42:54;;;;;;;9.10;3.20;;;;;;;10.23;60.71;101825.51;107429;1254;98389;-58
2023/06/04 01:45:26;;;;;;;10.60;3.20;;;;;;;10.15;60.48;101831.30;107429;1254;111362;-60
2023/06/04 01:47:56;;;;;;;6.20;2.60;;;;;;;10.05;60.69;101834.30;107408;1254;110074;-59
2023/06/04 01:50:25;;;;;;;13.00;2.40;;;;;;;10.01;60.65;101838.89;107413;1257;107763;-59
2023/06/04 01:52:54;;;;;;;8.40;3.00;;;;;;;9.96;60.62;101835.24;107424;1254;97816;-60
2023/06/04 01:55:24;;;;;;;5.60;2.40;;;;;;;9.94;60.66;101829.17;107444;1254;97818;-60
2023/06/04 01:57:53;;;;;;;7.00;2.30;;;;;;;9.89;60.88;101826.83;107415;1254;111044;-60
2023/06/04 02:00:21;;;;;;;7.90;2.30;;;;;;;9.83;61.19;101825.79;107399;1257;109064;-58
2023/06/04 02:02:50;;;;;;;4.50;1.90;;;;;;;9.80;60.98;101827.27;107417;1254;107750;-60
2023/06/04 02:05:19;;;;;;;10.40;1.80;;;;;;;9.76;61.37;101827.52;107409;1254;97738;-58
2023/06/04 02:07:48;;;;;;;7.50;2.60;;;;;;;9.72;61.29;101826.02;107516;1254;97693;-59
2023/06/04 02:10:19;;;;;;;3.50;1.70;;;;;;;9.64;61.39;101831.33;107447;1256;111751;-59
2023/06/04 02:12:59;;;;;;;4.80;2.20;;;;;;;9.58;61.47;101832.69;107422;1254;109330;-59
2023/06/04 02:15:28;;;;;;;7.40;2.10;;;;;;;9.55;61.75;101834.65;107439;1254;107167;-59
2023/06/04 02:18:20;;;;;;;6.90;1.90;;;;;;;9.53;62.15;101833.21;107390;1254;97828;-58
2023/06/04 02:20:49;;;;;;;10.00;2.80;;;;;;;9.50;62.23;101832.66;107428;1254;98389;-61
2023/06/04 02:23:19;;;;;;;5.30;2.10;;;;;;;9.50;62.57;101829.39;107543;1254;109779;-59
2023/06/04 02:25:49;;;;;;;6.40;1.60;;;;;;;9.51;62.94;101826.47;107415;1254;110366;-61
2023/06/04 02:28:18;;;;;;;6.90;1.80;;;;;;;9.52;63.10;101830.20;107378;1254;107667;-57
2023/06/04 02:30:47;;;;;;;3.10;1.90;;;;;;;9.52;62.96;101831.27;107378;1254;97816;-61
2023/06/04 02:33:15;;;;;;;7.70;1.70;;;;;;;9.53;63.28;101833.90;107367;1254;97836;-63
2023/06/04 02:35:44;;;;;;;7.90;1.80;;;;;;;9.54;63.35;101837.09;107420;1254;112412;-59
2023/06/04 02:38:13;;;;;;;9.00;1.90;;;;;;;9.54;63.48;101837.94;107306;1254;109610;-59
2023/06/04 02:40:42;;;;;;;7.70;1.90;;;;;;;9.58;63.47;101843.42;107384;1254;107543;-58
2023/06/04 02:43:11;;;;;;;5.40;1.90;;;;;;;9.62;63.65;101849.39;107402;1253;97807;-59
2023/06/04 02:45:40;;;;;;;11.60;1.80;;;;;;;9.65;63.70;101845.63;107440;1253;97876;-60
2023/06/04 02:48:09;;;;;;;8.10;2.20;;;;;;;9.70;63.51;101846.16;107305;1254;111007;-59
2023/06/04 02:50:38;;;;;;;5.00;2.00;;;;;;;9.75;63.56;101850.15;107303;1254;109469;-61
2023/06/04 02:53:07;;;;;;;6.30;2.20;;;;;;;9.79;63.56;101845.21;107316;1254;108480;-61
2023/06/04 02:55:36;;;;;;;5.70;1.90;;;;;;;9.82;63.57;101848.61;107186;1256;97921;-60
2023/06/04 02:58:04;;;;;;;8.10;2.10;;;;;;;9.82;63.30;101850.58;107415;1254;97811;-60
2023/06/04 03:00:33;;;;;;;6.70;1.80;;;;;;;9.83;63.32;101850.13;107226;1254;111864;-62
2023/06/04 03:03:02;;;;;;;7.00;2.70;;;;;;;9.86;63.29;101849.75;107455;1254;109915;-62
2023/06/04 03:05:31;;;;;;;6.70;3.00;;;;;;;9.90;63.42;101842.73;107325;1254;108126;-60
2023/06/04 03:08:02;;;;;;;8.80;2.40;;;;;;;9.91;63.07;101844.95;107416;1254;97825;-60
2023/06/04 03:10:31;;;;;;;5.70;2.40;;;;;;;9.90;63.00;101846.11;107366;1254;97889;-60
2023/06/04 03:12:59;;;;;;;7.00;2.60;;;;;;;9.88;62.97;101845.73;107376;1254;111889;-60
2023/06/04 03:15:28;;;;;;;6.40;2.20;;;;;;;9.84;62.95;101843.45;107401;1254;108921;-59
2023/06/04 03:17:57;;;;;;;5.00;2.20;;;;;;;9.85;63.02;101842.15;107398;1257;108255;-59
2023/06/04 03:20:25;;;;;;;8.10;2.20;;;;;;;9.85;62.84;101842.11;107412;1257;97915;-59
2023/06/04 03:22:54;;;;;;;9.70;2.50;;;;;;;9.86;62.93;101845.64;107468;1253;97820;-60
2023/06/04 03:25:23;;;;;;;6.90;2.60;;;;;;;9.87;62.84;101845.59;107400;1254;111833;-60
2023/06/04 03:27:52;;;;;;;5.60;3.00;;;;;;;9.85;62.78;101850.70;107403;1254;109309;-60
2023/06/04 03:30:21;;;;;;;4.10;2.40;;;;;;;9.83;62.72;101852.45;107445;1254;106994;-59
2023/06/04 03:32:58;;;;;;;16.00;3.00;;;;;;;9.85;62.53;101853.77;107385;1254;97837;-60
2023/06/04 03:35:27;;;;;;;13.70;2.50;;;;;;;9.88;62.69;101852.67;107456;1254;97816;-63
2023/06/04 03:37:55;;;;;;;6.90;3.30;;;;;;;9.91;62.67;101856.55;107432;1254;112249;-60
2023/06/04 03:40:24;;;;;;;16.30;2.70;;;;;;;9.94;62.56;101860.89;107440;1254;109123;-60
2023/06/04 03:42:53;;;;;;;8.10;2.40;;;;;;;9.95;62.52;101859.39;107452;1253;107021;-60
2023/06/04 03:45:24;;;;;;;11.90;2.70;;;;;;;9.99;62.41;101861.95;107299;1254;97828;-60
2023/06/04 03:47:53;;;;;;;6.40;2.60;;;;;;;10.03;62.30;101861.52;107357;1254;97714;-58
2023/06/04 03:50:22;;;;;;;6.60;3.10;;;;;;;10.08;62.12;101863.88;107299;1254;112350;-60
2023/06/04 03:52:53;;;;;;;15.40;2.40;;;;;;;10.13;62.02;101865.46;107403;1254;109798;-60
2023/06/04 03:55:22;;;;;;;7.70;2.30;;;;;;;10.20;61.89;101865.38;107410;1254;106669;-60
2023/06/04 03:57:51;;;;;;;3.20;2.00;;;;;;;10.26;61.66;101867.98;107420;1254;97989;-60
2023/06/04 04:00:21;;;;;;;6.00;2.50;;;;;;;10.33;61.57;101866.60;107432;1254;97928;-60
2023/06/04 04:02:50;;;;;;;6.50;2.40;;;;;;;10.41;61.43;101867.16;107403;1254;110540;-61
2023/06/04 04:05:22;;;;;;;10.30;3.00;;;;;;;10.48;61.27;101863.48;107408;1253;108826;-60
2023/06/04 04:07:51;;;;;;;6.20;2.90;;;;;;;10.53;61.04;101863.64;107360;1254;108746;-58
2023/06/04 04:10:24;;;;;;;10.50;2.80;;;;;;;10.60;60.89;101867.80;107344;1257;97844;-59
2023/06/04 04:12:54;;;;;;;15.40;3.10;;;;;;;10.66;60.92;101867.77;107401;1254;97861;-59
2023/06/04 04:15:23;;;;;;;15.60;2.60;;;;;;;10.73;60.65;101867.61;107308;1254;111318;-60
2023/06/04 04:17:52;;;;;;;17.90;3.20;;;;;;;10.81;60.72;101871.69;107361;1254;109574;-61
2023/06/04 04:20:22;;;;;;;5.20;3.00;;;;;;;10.90;60.73;101869.24;107191;1254;107952;-58
2023/06/04 04:22:55;;;;;;;17.20;3.10;;;;;;;11.01;60.34;101868.52;107160;1254;97910;-60
2023/06/04 04:25:25;;;;;;;8.10;2.60;;;;;;;11.08;60.00;101871.22;107194;1254;98389;-59
2023/06/04 04:27:56;;;;;;;7.60;2.00;;;;;;;11.15;59.86;101874.66;107387;1254;110732;-58
2023/06/04 04:30:25;;;;;;;7.90;2.90;;;;;;;11.22;59.32;101873.61;107408;1254;108725;-60
2023/06/04 04:32:55;;;;;;;5.40;2.10;;;;;;;11.33;58.88;101869.94;107414;1254;107291;-59
2023/06/04 04:35:29;;;;;;;6.20;2.20;;;;;;;11.42;58.30;101867.05;107409;1254;97908;-60
2023/06/04 04:37:59;;;;;;;6.50;2.00;;;;;;;11.51;57.98;101864.61;107380;1258;98341;-60
2023/06/04 04:40:27;;;;;;;7.50;2.10;;;;;;;11.58;57.64;101863.55;107428;1259;111562;-64
2023/06/04 04:42:58;;;;;;;14.10;2.60;;;;;;;11.67;57.43;101864.55;107449;1254;109655;-59
2023/06/04 04:45:26;;;;;;;14.20;2.30;;;;;;;11.72;57.14;101863.58;107444;1254;106879;-60
2023/06/04 04:47:57;;;;;;;9.60;2.70;;;;;;;11.77;57.01;101861.23;107410;1253;97882;-59
2023/06/04 04:50:25;;;;;;;7.90;2.40;;;;;;;11.82;56.94;101862.29;107400;1254;97740;-62
2023/06/04 04:52:54;;;;;;;5.20;2.30;;;;;;;11.87;57.18;101863.64;107405;1254;113615;-59
2023/06/04 04:55:23;;;;;;;8.30;2.70;;;;;;;11.92;57.02;101861.19;107426;1253;109787;-60
2023/06/04 04:57:52;;;;;;;9.90;2.70;;;;;;;11.96;56.92;101854.95;107390;1254;108843;-59
2023/06/04 05:00:20;;;;;;;6.40;2.60;;;;;;;12.04;56.78;101856.85;107384;1254;97810;-60
2023/06/04 05:02:51;;;;;;;8.10;2.10;;;;;;;12.10;56.46;101854.11;107414;1257;97790;-61
2023/06/04 05:05:20;;;;;;;6.30;2.10;;;;;;;12.16;56.23;101855.40;107466;1254;111657;-60
2023/06/04 05:07:49;;;;;;;11.10;2.30;;;;;;;12.24;56.12;101858.93;107418;1254;110508;-62
2023/06/04 05:10:18;;;;;;;11.90;2.60;;;;;;;12.33;55.72;101858.73;107393;1254;107561;-58
2023/06/04 05:12:51;;;;;;;22.60;2.10;;;;;;;12.44;55.56;101860.74;107403;1254;97807;-60
2023/06/04 05:15:20;;;;;;;10.50;2.30;;;;;;;12.50;55.18;101864.23;107294;1254;97840;-58
2023/06/04 05:17:52;;;;;;;10.90;2.50;;;;;;;12.57;54.88;101865.53;107446;1254;111782;-60
2023/06/04 05:20:20;;;;;;;13.90;3.80;;;;;;;12.62;54.61;101865.83;107250;1254;107533;-59
2023/06/04 05:22:49;;;;;;;11.50;2.50;;;;;;;12.67;54.69;101864.49;107333;1254;108013;-59
2023/06/04 05:25:19;;;;;;;14.30;2.80;;;;;;;12.72;54.65;101866.11;107363;1254;97892;-59
2023/06/04 05:27:49;;;;;;;17.30;2.20;;;;;;;12.77;54.70;101871.45;107414;1254;97837;-59
2023/06/04 05:30:18;;;;;;;21.50;2.60;;;;;;;12.82;54.58;101874.80;107313;1254;111363;-59
2023/06/04 05:32:46;;;;;;;12.90;2.10;;;;;;;12.88;54.40;101875.31;107470;1254;110091;-61
2023/06/04 05:35:16;;;;;;;6.00;1.60;;;;;;;12.93;54.12;101878.13;107372;1254;106987;-63
2023/06/04 05:37:45;;;;;;;5.90;1.70;;;;;;;12.96;53.10;101875.87;107236;1259;97810;-60
2023/06/04 05:40:15;;;;;;;12.00;2.40;;;;;;;13.03;51.90;101873.89;107379;1254;97705;-62
2023/06/04 05:42:44;;;;;;;8.50;2.00;;;;;;;13.09;52.33;101877.54;107181;1257;111054;-61
2023/06/04 05:45:13;;;;;;;5.70;1.90;;;;;;;13.15;52.62;101878.66;107314;1256;109308;-61
2023/06/04 05:47:42;;;;;;;5.10;1.80;;;;;;;13.22;52.74;101877.94;106998;1263;108728;-62
2023/06/04 05:50:11;;;;;;;11.80;3.20;;;;;;;13.28;52.61;101881.90;107313;1256;97876;-58
2023/06/04 05:52:41;;;;;;;14.70;2.10;;;;;;;13.36;52.73;101887.45;107422;1254;97685;-60
2023/06/04 05:55:11;;;;;;;6.60;1.80;;;;;;;13.45;52.58;101889.91;107405;1254;112436;-61
2023/06/04 05:57:40;;;;;;;16.00;2.30;;;;;;;13.54;52.16;101890.42;107422;1254;110022;-61
2023/06/04 06:00:10;;;;;;;6.70;2.50;;;;;;;13.61;51.88;101887.73;107284;1254;106935;-59
2023/06/04 06:02:41;;;;;;;5.20;1.90;;;;;;;13.68;51.77;101889.81;107398;1254;97815;-60
2023/06/04 06:05:15;;;;;;;8.90;2.20;;;;;;;13.78;51.34;101889.02;107274;1254;97844;-60
2023/06/04 06:07:44;;;;;;;13.70;2.40;;;;;;;13.86;51.23;101887.79;107433;1254;110293;-58
2023/06/04 06:10:13;;;;;;;6.80;1.20;;;;;;;13.96;49.97;101885.49;107559;1253;110160;-60
2023/06/04 06:12:42;;;;;;;7.30;1.10;;;;;;;14.08;49.61;101888.06;107356;1254;106899;-60
2023/06/04 06:15:10;;;;;;;8.50;1.60;;;;;;;14.21;49.00;101885.18;107400;1254;98315;-62
2023/06/04 06:17:40;;;;;;;9.60;1.60;;;;;;;14.33;48.48;101887.59;107410;1254;97915;-61
2023/06/04 06:20:10;;;;;;;10.50;2.00;;;;;;;14.43;48.18;101889.79;107314;1254;110564;-60
2023/06/04 06:22:38;;;;;;;3.10;1.30;;;;;;;14.55;47.22;101895.79;107401;1253;109100;-60
2023/06/04 06:25:07;;;;;;;4.20;1.40;;;;;;;14.63;47.21;101894.33;107255;1254;108519;-61
2023/06/04 06:27:41;;;;;;;;;;;;;;;14.73;47.22;101897.32;107382;1254;97898;-59
2023/06/04 06:30:12;;;;;;;8.40;1.50;;;;;;;14.82;47.02;101895.61;107407;1254;97698;-61
2023/06/04 06:32:40;;;;;;;6.10;1.20;;;;;;;14.92;46.44;101892.02;107422;1254;111170;-62
2023/06/04 06:35:09;;;;;;;5.50;1.20;;;;;;;15.04;44.83;101892.19;107402;1254;109887;-61
2023/06/04 06:37:41;;;;;;;6.70;1.10;;;;;;;15.17;44.74;101895.44;107391;1254;107881;-59
2023/06/04 06:40:11;;;;;;;14.40;1.50;;;;;;;15.29;43.80;101897.77;107395;1254;97838;-61
2023/06/04 06:42:39;;;;;;;10.60;1.40;;;;;;;15.43;42.58;101898.48;107372;1257;97853;-60
2023/06/04 06:45:08;;;;;;;4.50;1.00;;;;;;;15.55;42.51;101896.30;107417;1254;111893;-61
2023/06/04 06:47:37;;;;;;;10.80;1.10;;;;;;;15.68;41.44;101898.19;107417;1254;110475;-60
2023/06/04 06:50:08;;;;;;;9.60;1.40;;;;;;;15.79;39.99;101892.84;107415;1254;107678;-62
2023/06/04 06:52:37;;;;;;;37.10;1.70;;;;;;;15.91;38.85;101891.21;107380;1254;97908;-61
2023/06/04 06:55:06;;;;;;;3.00;0.80;;;;;;;16.06;38.62;101891.66;107424;1254;98373;-59
2023/06/04 06:57:34;;;;;;;11.50;0.90;;;;;;;16.17;38.38;101893.13;107420;1254;111855;-61
2023/06/04 07:00:04;;;;;;;4.20;0.80;;;;;;;16.27;38.48;101892.53;107402;1254;109243;-62
2023/06/04 07:02:32;;;;;;;5.90;0.90;;;;;;;16.37;38.43;101884.91;107419;1254;106337;-60
2023/06/04 07:05:01;;;;;;;3.50;1.20;;;;;;;16.47;37.57;101887.22;107410;1254;97723;-61
2023/06/04 07:07:31;;;;;;;10.40;1.00;;;;;;;16.54;36.16;101887.08;107364;1254;98360;-61
2023/06/04 07:09:59;;;;;;;6.70;1.60;;;;;;;16.61;35.74;101892.41;107426;1253;111870;-61
2023/06/04 07:12:28;;;;;;;8.20;0.70;;;;;;;16.67;35.69;101892.67;107396;1254;109858;-60
2023/06/04 07:14:56;;;;;;;3.30;1.10;;;;;;;16.76;35.98;101895.41;107419;1254;109246;-60
2023/06/04 07:17:25;;;;;;;4.30;1.10;;;;;;;16.87;35.30;101893.33;107439;1254;97792;-61
2023/06/04 07:19:53;;;;;;;5.30;0.60;;;;;;;16.95;35.13;101892.20;107414;1254;97729;-61
2023/06/04 07:22:22;;;;;;;4.30;0.80;;;;;;;17.02;34.77;101891.16;107407;1254;112578;-59
2023/06/04 07:24:50;;;;;;;6.40;1.00;;;;;;;17.09;33.69;101887.02;107308;1259;110764;-61
2023/06/04 07:27:19;;;;;;;3.20;0.90;;;;;;;17.14;34.07;101890.87;107349;1257;108167;-61
2023/06/04 07:29:47;;;;;;;3.30;0.80;;;;;;;17.21;33.89;101884.77;107269;1254;97924;-60
2023/06/04 07:32:15;;;;;;;2.30;0.70;;;;;;;17.28;33.20;101879.02;107398;1254;97989;-60
2023/06/04 07:34:44;;;;;;;8.00;1.30;;;;;;;17.33;32.95;101877.92;107447;1254;111891;-61
2023/06/04 07:37:15;;;;;;;5.00;0.60;;;;;;;17.40;33.15;101882.54;107458;1257;110092;-61
2023/06/04 07:39:43;;;;;;;6.10;0.90;;;;;;;17.46;32.35;101882.13;107463;1257;107109;-61
2023/06/04 07:42:13;;;;;;;3.20;1.00;;;;;;;17.48;33.12;101879.88;107447;1257;97919;-63
2023/06/04 07:44:42;;;;;;;3.30;0.70;;;;;;;17.53;33.42;101880.11;107505;1254;97726;-61
2023/06/04 07:47:10;;;;;;;2.30;1.00;;;;;;;17.61;32.57;101884.08;107438;1254;112217;-62
2023/06/04 07:49:39;;;;;;;3.60;0.80;;;;;;;17.65;31.44;101885.80;107475;1254;108963;-60
2023/06/04 07:52:25;;;;;;;2.60;1.00;;;;;;;17.68;31.70;101890.03;107310;1254;108642;-60
2023/06/04 07:54:53;;;;;;;2.90;1.20;;;;;;;17.72;32.47;101886.59;107405;1256;97865;-61
2023/06/04 07:57:21;;;;;;;2.70;0.70;;;;;;;17.79;31.70;101883.86;107432;1253;97714;-62
2023/06/04 07:59:51;;;;;;;7.10;1.00;;;;;;;17.85;31.35;101880.00;107474;1254;111652;-61
2023/06/04 08:02:19;;;;;;;3.20;0.80;;;;;;;17.92;31.30;101879.66;106968;1253;751269;-61
2023/06/04 08:04:48;;;;;;;14.20;1.00;;;;;;;18.00;31.71;101876.52;107432;1254;108746;-60
2023/06/04 08:07:17;;;;;;;5.70;0.90;;;;;;;18.09;31.49;101873.73;107432;1254;97835;-62
2023/06/04 08:09:46;;;;;;;1.20;0.70;;;;;;;18.16;31.45;101867.20;107463;1253;97848;-60
2023/06/04 08:12:15;;;;;;;3.30;0.90;;;;;;;18.23;32.02;101865.39;107480;1254;112073;-61
2023/06/04 08:14:45;;;;;;;5.10;1.00;;;;;;;18.33;31.95;101869.09;107478;1254;110089;-63
2023/06/04 08:17:13;;;;;;;5.20;0.90;;;;;;;18.44;31.03;101866.73;107435;1254;109235;-62
2023/06/04 08:19:42;;;;;;;4.60;1.10;;;;;;;18.55;31.30;101866.66;107400;1255;97719;-60
2023/06/04 08:22:11;;;;;;;5.70;0.80;;;;;;;18.63;31.51;101864.11;107463;1254;97831;-60
2023/06/04 08:24:43;;;;;;;6.80;0.80;;;;;;;18.73;31.30;101862.18;107433;1254;111878;-62
2023/06/04 08:27:13;;;;;;;8.60;1.50;;;;;;;18.82;31.19;101860.36;107453;1253;109391;-63
2023/06/04 08:29:42;;;;;;;4.80;0.90;;;;;;;18.92;31.03;101860.91;107384;1254;108121;-62
2023/06/04 08:32:11;;;;;;;5.50;1.10;;;;;;;19.01;30.44;101860.48;107418;1254;97899;-61
2023/06/04 08:34:39;;;;;;;2.10;1.00;;;;;;;19.12;29.58;101865.20;107478;1254;97726;-60
2023/06/04 08:37:08;;;;;;;2.00;0.80;;;;;;;19.19;30.16;101862.95;107548;1254;112419;-60
2023/06/04 08:39:36;;;;;;;8.80;1.10;;;;;;;19.26;30.51;101866.23;107454;1253;109669;-61
2023/06/04 08:42:07;;;;;;;3.90;1.10;;;;;;;19.35;30.48;101868.73;107443;1254;107775;-61
2023/06/04 08:44:35;;;;;;;10.50;1.30;;;;;;;19.46;30.40;101865.89;107470;1257;97908;-60
2023/06/04 08:47:05;;;;;;;14.30;1.20;;;;;;;19.54;30.61;101864.27;107428;1254;98345;-62
2023/06/04 08:49:38;;;;;;;2.50;0.80;;;;;;;19.66;29.52;101863.89;107454;1254;112750;-61
2023/06/04 08:52:07;;;;;;;1.70;0.80;;;;;;;19.72;29.26;101860.80;107466;1254;109639;-61
2023/06/04 08:54:36;;;;;;;4.50;1.00;;;;;;;19.80;29.10;101858.45;107352;1254;107598;-61
2023/06/04 08:57:05;;;;;;;6.90;0.90;;;;;;;19.90;29.24;101850.11;107415;1254;97810;-60
2023/06/04 08:59:35;;;;;;;6.20;1.00;;;;;;;20.00;29.01;101851.91;107406;1254;97844;-60
2023/06/04 09:02:04;;;;;;;2.80;1.10;;;;;;;20.12;29.31;101851.77;107405;1254;111304;-62
2023/06/04 09:04:32;;;;;;;6.50;0.90;;;;;;;20.28;29.24;101845.21;107452;1254;108677;-62
2023/06/04 09:07:02;;;;;;;4.70;1.20;;;;;;;20.45;28.99;101841.94;107418;1256;108433;-62
2023/06/04 09:09:37;;;;;;;15.60;0.90;;;;;;;20.67;28.81;101840.98;107385;1254;97695;-61
2023/06/04 09:12:11;;;;;;;2.80;1.30;;;;;;;20.90;28.47;101833.80;107475;1254;97694;-60
2023/06/04 09:14:40;;;;;;;0.90;0.80;;;;;;;21.13;28.43;101829.80;107461;1253;112280;-61
2023/06/04 09:17:08;;;;;;;3.40;1.30;;;;;;;21.38;28.11;101826.73;107419;1254;110329;-60
2023/06/04 09:19:37;;;;;;;2.60;1.30;;;;;;;21.62;28.00;101831.73;107439;1254;108142;-61
2023/06/04 09:22:05;;;;;;;11.40;0.90;;;;;;;21.92;27.17;101832.70;107425;1253;97865;-60
2023/06/04 09:24:52;;;;;;;2.00;1.10;;;;;;;22.12;25.84;101831.79;107416;1254;97847;-60
2023/06/04 09:27:22;;;;;;;7.00;1.30;;;;;;;22.34;25.62;101826.42;107433;1253;112285;-60
2023/06/04 09:29:51;;;;;;;3.60;1.00;;;;;;;22.60;26.02;101822.46;107415;1254;108746;-61
2023/06/04 09:32:26;;;;;;;5.20;0.70;;;;;;;22.94;26.36;101819.02;107383;1253;108011;-60
2023/06/04 09:35:08;;;;;;;3.30;1.10;;;;;;;23.30;25.99;101820.80;107444;1255;97826;-61
2023/06/04 09:37:37;;;;;;;7.00;1.10;;;;;;;23.70;25.90;101816.77;107438;1255;97998;-61
2023/06/04 09:40:07;;;;;;;5.20;2.40;;;;;;;24.09;25.09;101814.23;107275;1254;113033;-59
2023/06/04 09:42:54;;;;;;;7.80;1.20;;;;;;;24.40;24.78;101814.46;107417;1254;109825;-61
2023/06/04 09:45:28;;;;;;;9.30;1.50;;;;;;;24.68;23.99;101813.05;107407;1253;108048;-62
2023/06/04 09:47:57;;;;;;;;;;;;;;;25.02;23.77;101811.52;107434;1254;97828;-61
2023/06/04 09:50:38;;;;;;;3.60;1.00;;;;;;;25.30;23.20;101811.30;107421;1254;98356;-60
2023/06/04 09:53:33;;;;;;;9.80;1.50;;;;;;;25.58;23.01;101810.20;107433;1257;110424;-61
2023/06/04 09:56:03;;;;;;;9.90;1.10;;;;;;;25.97;22.37;101805.86;107396;1254;110562;-60
2023/06/04 09:58:32;;;;;;;5.60;1.00;;;;;;;26.20;21.54;101800.75;107469;1254;108687;-61
2023/06/04 10:01:04;;;;;;;10.10;1.20;;;;;;;26.51;22.12;101798.35;107405;1256;97726;-61
2023/06/04 10:03:35;;;;;;;12.90;1.40;;;;;;;26.95;21.55;101795.95;107376;1254;97704;-61
2023/06/04 10:06:05;;;;;;;7.10;0.90;;;;;;;27.24;20.94;101793.80;107472;1253;111996;-61
2023/06/04 10:08:34;;;;;;;6.10;1.00;;;;;;;27.42;21.04;101787.52;107516;1254;109729;-62
2023/06/04 10:11:03;;;;;;;9.80;1.40;;;;;;;27.74;20.58;101791.91;107478;1254;108897;-62
2023/06/04 10:14:00;;;;;;;7.90;1.20;;;;;;;27.94;20.04;101786.06;107398;1254;97824;-60
2023/06/04 10:16:31;;;;;;;4.60;0.90;;;;;;;28.27;20.00;101783.85;107430;1254;98347;-61
2023/06/04 10:19:04;;;;;;;4.00;0.80;;;;;;;28.81;19.22;101785.97;107441;1254;110838;-60
2023/06/04 10:21:37;;;;;;;11.70;1.20;;;;;;;29.18;18.50;101780.20;107426;1257;110111;-61
2023/06/04 10:24:07;;;;;;;5.60;1.10;;;;;;;29.55;17.83;101774.17;107362;1254;108307;-61
2023/06/04 10:26:37;;;;;;;4.90;1.20;;;;;;;29.87;17.75;101770.41;107440;1254;98521;-61
2023/06/04 10:29:06;;;;;;;4.80;1.10;;;;;;;30.12;17.35;101773.37;107354;1254;97891;-60
2023/06/04 10:31:37;;;;;;;1.70;1.00;;;;;;;30.26;17.54;101767.77;107368;1256;110933;-64
2023/06/04 10:34:05;;;;;;;6.70;1.00;;;;;;;30.55;17.42;101768.45;107455;1254;110635;-61
2023/06/04 10:36:43;;;;;;;3.00;0.90;;;;;;;30.76;17.37;101767.97;107442;1254;107585;-60
2023/06/04 10:39:12;;;;;;;6.00;1.20;;;;;;;31.11;17.46;101764.13;107382;1254;97828;-61
2023/06/04 10:41:40;;;;;;;3.10;0.80;;;;;;;31.53;17.29;101760.67;107485;1254;97734;-61
2023/06/04 10:44:09;;;;;;;5.50;0.80;;;;;;;31.87;16.38;101754.48;107442;1255;111416;-61
2023/06/04 10:46:43;;;;;;;2.90;1.00;;;;;;;32.18;15.53;101749.23;107480;1253;109941;-64
2023/06/04 10:49:12;;;;;;;1.10;0.60;;;;;;;32.20;15.72;101752.83;107296;1257;108610;-63
2023/06/04 10:51:40;;;;;;;4.80;1.80;;;;;;;32.31;15.96;101754.52;107333;1257;99426;-60
2023/06/04 10:54:09;;;;;;;5.50;1.10;;;;;;;32.60;15.68;101747.56;107296;1256;97821;-60
2023/06/04 10:56:38;;;;;;;6.20;0.80;;;;;;;32.93;15.97;101748.28;107220;1255;112023;-61
2023/06/04 10:59:17;;;;;;;6.10;0.80;;;;;;;33.28;16.01;101751.21;107244;1261;110306;-61
2023/06/04 11:01:46;;;;;;;3.00;0.90;;;;;;;33.60;15.29;101749.19;107162;1259;107898;-60
2023/06/04 11:04:25;;;;;;;1.80;0.80;;;;;;;33.75;14.89;101749.90;107105;1257;97918;-61
2023/06/04 11:07:08;;;;;;;2.20;0.90;;;;;;;33.89;14.78;101748.67;107382;1256;97854;-60
2023/06/04 11:09:50;;;;;;;7.40;0.90;;;;;;;34.09;14.53;101745.47;107364;1254;110954;-62
2023/06/04 11:12:18;;;;;;;2.30;0.90;;;;;;;34.35;14.81;101743.64;107078;1257;109714;-61
2023/06/04 11:14:57;;;;;;;2.40;0.90;;;;;;;34.80;14.11;101735.44;107357;1258;108646;-61
2023/06/04 11:17:25;;;;;;;4.00;0.90;;;;;;;34.97;14.01;101740.91;107403;1258;97841;-61
2023/06/04 11:19:55;;;;;;;1.20;0.80;;;;;;;35.15;13.72;101741.86;107376;1257;97703;-63
2023/06/04 11:22:24;;;;;;;6.90;0.80;;;;;;;35.27;13.86;101740.17;107257;1257;111087;-61
2023/06/04 11:24:59;;;;;;;8.90;1.20;;;;;;;35.52;13.68;101733.17;107297;1255;108442;-61
2023/06/04 11:27:34;;;;;;;2.00;0.80;;;;;;;35.86;12.53;101728.96;107336;1255;108612;-62